createdAt,value
2019-04-07T00:01:51.791Z,16.67
2019-04-07T00:04:20.508Z,16.57
2019-04-07T00:06:49.350Z,15.20
2019-04-07T00:09:18.009Z,14.93
2019-04-07T00:11:46.651Z,15.47
2019-04-07T00:14:16.680Z,14.93
2019-04-07T00:16:45.557Z,14.77
2019-04-07T00:19:14.271Z,14.70
2019-04-07T00:21:43.008Z,14.57
2019-04-07T00:24:11.772Z,14.37
2019-04-07T00:26:40.595Z,15.20
2019-04-07T00:29:09.731Z,14.33
2019-04-07T00:31:38.681Z,15.30
2019-04-07T00:34:07.319Z,13.50
2019-04-07T00:36:36.270Z,13.60
2019-04-07T00:39:07.536Z,13.10
2019-04-07T00:41:36.439Z,13.70
2019-04-07T00:44:06.125Z,12.90
2019-04-07T00:46:35.517Z,12.57
2019-04-07T00:49:05.049Z,12.63
2019-04-07T00:51:34.208Z,12.90
2019-04-07T00:54:02.975Z,12.20
2019-04-07T00:56:31.660Z,12.47
2019-04-07T00:59:00.324Z,12.17
2019-04-07T01:01:29.534Z,13.10
2019-04-07T01:03:58.409Z,13.27
2019-04-07T01:06:28.291Z,12.30
2019-04-07T01:08:56.992Z,12.13
2019-04-07T01:11:25.701Z,13.03
2019-04-07T01:13:54.828Z,12.37
2019-04-07T01:16:24.139Z,12.33
2019-04-07T01:18:53.460Z,11.37
2019-04-07T01:21:22.763Z,11.90
2019-04-07T01:23:51.744Z,11.13
2019-04-07T01:26:20.583Z,10.87
2019-04-07T01:28:49.263Z,11.37
2019-04-07T01:31:17.975Z,12.47
2019-04-07T01:33:46.885Z,11.37
2019-04-07T01:36:16.089Z,10.73
2019-04-07T01:38:45.354Z,11.37
2019-04-07T01:41:22.866Z,11.13
2019-04-07T01:43:53.615Z,11.33
2019-04-07T01:46:33.866Z,10.23
2019-04-07T01:49:10.895Z,9.87
2019-04-07T01:51:51.852Z,9.80
2019-04-07T01:54:34.057Z,10.37
2019-04-07T01:57:04.499Z,9.70
2019-04-07T01:59:35.465Z,9.80
2019-04-07T02:02:17.622Z,9.47
2019-04-07T02:04:47.926Z,9.03
2019-04-07T02:07:34.676Z,8.67
2019-04-07T02:10:06.026Z,9.03
2019-04-07T02:12:53.210Z,9.30
2019-04-07T02:15:35.006Z,9.23
2019-04-07T02:18:05.940Z,9.53
2019-04-07T02:20:44.900Z,8.57
2019-04-07T02:23:15.346Z,9.73
2019-04-07T02:26:02.368Z,8.97
2019-04-07T02:28:44.344Z,8.53
2019-04-07T02:31:14.494Z,9.10
2019-04-07T02:33:47.105Z,9.40
2019-04-07T02:36:25.936Z,9.80
2019-04-07T02:38:52.019Z,9.37
2019-04-07T02:41:29.180Z,9.57
2019-04-07T02:43:59.722Z,9.87
2019-04-07T02:46:41.943Z,9.77
2019-04-07T02:49:17.959Z,9.73
2019-04-07T02:51:48.156Z,9.83
2019-04-07T02:54:24.606Z,9.83
2019-04-07T02:56:55.938Z,10.23
2019-04-07T03:00:01.989Z,10.13
2019-04-07T03:02:41.167Z,9.73
2019-04-07T03:05:20.969Z,10.07
2019-04-07T03:07:54.946Z,9.60
2019-04-07T03:10:40.575Z,10.00
2019-04-07T03:13:19.459Z,10.37
2019-04-07T03:15:49.615Z,9.57
2019-04-07T03:18:20.156Z,10.03
2019-04-07T03:20:52.361Z,9.87
2019-04-07T03:23:35.087Z,9.87
2019-04-07T03:26:11.476Z,9.60
2019-04-07T03:28:58.039Z,10.40
2019-04-07T03:31:32.278Z,9.17
2019-04-07T03:34:20.798Z,8.60
2019-04-07T03:37:30.344Z,8.63
2019-04-07T03:39:50.078Z,8.53
2019-04-07T03:42:32.703Z,8.60
2019-04-07T03:45:06.143Z,8.50
2019-04-07T03:47:37.514Z,7.67
2019-04-07T03:50:20.736Z,8.10
2019-04-07T03:52:54.453Z,8.13
2019-04-07T03:55:31.101Z,7.80
2019-04-07T03:58:01.625Z,8.13
2019-04-07T04:01:05.501Z,8.13
2019-04-07T04:03:44.675Z,8.27
2019-04-07T04:06:30.157Z,7.30
2019-04-07T04:09:03.662Z,7.60
2019-04-07T04:11:50.079Z,7.37
2019-04-07T04:14:20.410Z,8.70
2019-04-07T04:16:51.024Z,8.37
2019-04-07T04:19:20.695Z,8.30
2019-04-07T04:21:49.673Z,8.63
2019-04-07T04:24:18.523Z,8.90
2019-04-07T04:26:47.615Z,9.00
2019-04-07T04:29:17.080Z,9.73
2019-04-07T04:31:45.896Z,9.90
2019-04-07T04:34:15.142Z,9.70
2019-04-07T04:36:44.716Z,9.90
2019-04-07T04:39:17.251Z,9.40
2019-04-07T04:41:43.741Z,10.30
2019-04-07T04:44:14.207Z,9.73
2019-04-07T04:46:42.874Z,8.97
2019-04-07T04:49:11.871Z,10.00
2019-04-07T04:51:40.986Z,9.97
2019-04-07T04:54:10.905Z,9.87
2019-04-07T04:56:39.640Z,9.30
2019-04-07T04:59:08.139Z,9.23
2019-04-07T05:01:36.664Z,9.33
2019-04-07T05:04:05.180Z,8.97
2019-04-07T05:06:33.675Z,8.80
2019-04-07T05:09:02.206Z,9.00
2019-04-07T05:11:30.746Z,9.63
2019-04-07T05:13:59.305Z,8.43
2019-04-07T05:16:28.044Z,8.77
2019-04-07T05:18:56.550Z,9.17
2019-04-07T05:21:26.189Z,8.53
2019-04-07T05:23:54.977Z,8.60
2019-04-07T05:26:24.026Z,8.60
2019-04-07T05:28:52.865Z,8.27
2019-04-07T05:31:21.452Z,9.20
2019-04-07T05:33:49.908Z,8.93
2019-04-07T05:36:18.545Z,9.10
2019-04-07T05:38:47.098Z,8.77
2019-04-07T05:41:15.669Z,9.27
2019-04-07T05:43:44.437Z,8.40
2019-04-07T05:46:12.882Z,9.33
2019-04-07T05:48:41.978Z,8.20
2019-04-07T05:51:10.744Z,9.07
2019-04-07T05:53:39.898Z,8.60
2019-04-07T05:56:08.630Z,8.77
2019-04-07T05:58:38.718Z,10.13
2019-04-07T06:01:07.509Z,9.77
2019-04-07T06:03:41.262Z,10.17
2019-04-07T06:06:06.274Z,9.00
2019-04-07T06:08:37.994Z,8.37
2019-04-07T06:11:05.085Z,8.33
2019-04-07T06:13:33.765Z,8.30
2019-04-07T06:16:03.105Z,8.27
2019-04-07T06:18:34.022Z,9.23
2019-04-07T06:21:02.785Z,8.63
2019-04-07T06:23:31.419Z,8.50
2019-04-07T06:26:00.282Z,8.20
2019-04-07T06:28:29.245Z,8.53
2019-04-07T06:31:00.200Z,8.03
2019-04-07T06:33:28.537Z,8.23
2019-04-07T06:35:57.411Z,8.00
2019-04-07T06:38:33.070Z,8.33
2019-04-07T06:41:00.583Z,7.67
2019-04-07T06:43:27.074Z,7.77
2019-04-07T06:46:12.888Z,7.93
2019-04-07T06:48:59.378Z,7.93
2019-04-07T06:51:32.322Z,7.27
2019-04-07T06:54:05.772Z,8.20
2019-04-07T06:56:36.942Z,7.10
2019-04-07T06:59:15.503Z,8.13
2019-04-07T07:01:51.063Z,7.83
2019-04-07T07:04:30.099Z,8.10
2019-04-07T07:07:36.400Z,8.57
2019-04-07T07:10:29.025Z,7.67
2019-04-07T07:12:59.891Z,7.97
2019-04-07T07:15:36.961Z,7.53
2019-04-07T07:18:08.003Z,7.67
2019-04-07T07:20:45.015Z,7.10
2019-04-07T07:23:15.836Z,8.10
2019-04-07T07:25:45.438Z,7.20
2019-04-07T07:28:14.113Z,6.60
2019-04-07T07:30:42.782Z,7.07
2019-04-07T07:33:11.323Z,6.40
2019-04-07T07:35:39.912Z,7.20
2019-04-07T07:38:09.218Z,7.17
2019-04-07T07:40:38.536Z,6.77
2019-04-07T07:43:07.145Z,6.97
2019-04-07T07:45:36.208Z,6.67
2019-04-07T07:48:05.370Z,7.57
2019-04-07T07:50:37.701Z,7.13
2019-04-07T07:53:04.785Z,6.83
2019-04-07T07:55:35.926Z,6.90
2019-04-07T07:58:04.054Z,6.33
2019-04-07T08:00:37.162Z,6.53
2019-04-07T08:03:03.607Z,5.90
2019-04-07T08:05:34.676Z,5.73
2019-04-07T08:08:03.636Z,6.20
2019-04-07T08:10:32.139Z,5.97
2019-04-07T08:13:04.779Z,6.13
2019-04-07T08:15:32.316Z,6.17
2019-04-07T08:18:05.683Z,6.10
2019-04-07T08:20:31.737Z,6.40
2019-04-07T08:23:01.158Z,5.73
2019-04-07T08:25:30.231Z,5.63
2019-04-07T08:28:02.155Z,5.67
2019-04-07T08:30:29.098Z,5.40
2019-04-07T08:32:59.527Z,6.70
2019-04-07T08:35:28.830Z,5.37
2019-04-07T08:37:57.624Z,5.23
2019-04-07T08:40:27.415Z,4.67
2019-04-07T08:42:57.292Z,5.63
2019-04-07T08:45:26.758Z,5.60
2019-04-07T08:47:56.008Z,6.42
2019-04-07T08:50:27.749Z,5.62
2019-04-07T08:52:55.419Z,4.95
2019-04-07T08:55:24.039Z,5.12
2019-04-07T08:57:52.652Z,5.03
2019-04-07T09:00:23.083Z,4.62
2019-04-07T09:03:02.376Z,5.10
2019-04-07T09:05:27.644Z,4.42
2019-04-07T09:07:52.918Z,4.00
2019-04-07T09:10:25.950Z,4.12
2019-04-07T09:12:56.816Z,4.20
2019-04-07T09:15:27.001Z,3.75
2019-04-07T09:18:03.315Z,4.37
2019-04-07T09:20:33.583Z,4.67
2019-04-07T09:23:10.214Z,4.20
2019-04-07T09:25:46.661Z,4.20
2019-04-07T09:28:34.219Z,4.25
2019-04-07T09:31:16.432Z,4.50
2019-04-07T09:33:53.894Z,4.17
2019-04-07T09:36:36.387Z,4.05
2019-04-07T09:39:12.366Z,4.85
2019-04-07T09:41:43.862Z,4.87
2019-04-07T09:44:33.964Z,4.80
2019-04-07T09:47:17.266Z,4.40
2019-04-07T09:49:58.417Z,4.72
2019-04-07T09:52:34.175Z,4.40
2019-04-07T09:55:26.410Z,4.75
2019-04-07T09:57:57.713Z,4.78
2019-04-07T10:00:28.765Z,4.33
2019-04-07T10:03:07.839Z,4.53
2019-04-07T10:05:40.879Z,4.67
2019-04-07T10:08:13.610Z,4.10
2019-04-07T10:11:00.601Z,4.25
2019-04-07T10:13:34.123Z,4.25
2019-04-07T10:16:16.534Z,3.90
2019-04-07T10:18:46.702Z,4.30
2019-04-07T10:21:33.466Z,4.03
2019-04-07T10:24:03.639Z,4.90
2019-04-07T10:26:43.000Z,4.20
2019-04-07T10:29:13.222Z,5.10
2019-04-07T10:32:02.348Z,4.67
2019-04-07T10:34:36.359Z,4.53
2019-04-07T10:37:24.403Z,4.50
2019-04-07T10:39:58.494Z,4.75
2019-04-07T10:42:38.025Z,4.67
2019-04-07T10:45:21.858Z,4.85
2019-04-07T10:47:57.965Z,4.72
2019-04-07T10:50:44.271Z,4.50
2019-04-07T10:53:15.911Z,4.55
2019-04-07T10:55:55.049Z,4.03
2019-04-07T10:58:41.518Z,4.50
2019-04-07T11:01:21.026Z,4.70
2019-04-07T11:04:08.005Z,4.08
2019-04-07T11:06:54.036Z,4.15
2019-04-07T11:09:28.298Z,4.40
2019-04-07T11:12:04.613Z,4.25
2019-04-07T11:14:46.948Z,4.20
2019-04-07T11:17:17.038Z,4.35
2019-04-07T11:19:47.807Z,4.65
2019-04-07T11:22:36.727Z,4.80
2019-04-07T11:25:11.934Z,4.28
2019-04-07T11:27:42.226Z,3.90
2019-04-07T11:30:30.992Z,3.83
2019-04-07T11:33:01.864Z,4.10
2019-04-07T11:35:32.110Z,4.22
2019-04-07T11:38:17.872Z,3.92
2019-04-07T11:41:05.764Z,3.98
2019-04-07T11:43:52.338Z,4.10
2019-04-07T11:46:26.234Z,3.80
2019-04-07T11:49:02.646Z,3.83
2019-04-07T11:51:49.055Z,4.22
2019-04-07T11:54:35.029Z,4.05
2019-04-07T11:57:11.920Z,3.87
2019-04-07T11:59:58.419Z,4.67
2019-04-07T12:02:31.908Z,4.10
2019-04-07T12:05:11.751Z,3.60
2019-04-07T12:07:56.514Z,3.60
2019-04-07T12:10:25.814Z,3.90
2019-04-07T12:13:01.932Z,4.05
2019-04-07T12:15:38.746Z,4.25
2019-04-07T12:18:24.053Z,3.37
2019-04-07T12:20:54.163Z,4.05
2019-04-07T12:23:43.335Z,3.75
2019-04-07T12:26:29.246Z,3.52
2019-04-07T12:29:02.582Z,3.98
2019-04-07T12:31:44.999Z,4.15
2019-04-07T12:34:17.886Z,4.70
2019-04-07T12:37:07.749Z,4.20
2019-04-07T12:39:38.710Z,3.70
2019-04-07T12:42:09.010Z,3.62
2019-04-07T12:44:41.887Z,3.60
2019-04-07T12:47:14.723Z,3.67
2019-04-07T12:50:04.005Z,3.30
2019-04-07T12:52:34.283Z,3.37
2019-04-07T12:55:08.006Z,3.60
2019-04-07T12:57:50.346Z,3.92
2019-04-07T13:00:30.833Z,3.72
2019-04-07T13:03:07.135Z,3.83
2019-04-07T13:05:46.336Z,4.22
2019-04-07T13:08:25.794Z,3.95
2019-04-07T13:10:59.107Z,3.12
2019-04-07T13:13:35.221Z,3.20
2019-04-07T13:16:15.593Z,2.80
2019-04-07T13:18:50.023Z,3.10
2019-04-07T13:21:29.274Z,3.08
2019-04-07T13:24:06.978Z,3.12
2019-04-07T13:26:34.574Z,2.80
2019-04-07T13:29:07.545Z,3.20
2019-04-07T13:31:40.485Z,2.80
2019-04-07T13:34:20.035Z,3.05
2019-04-07T13:37:05.522Z,3.05
2019-04-07T13:39:39.292Z,2.65
2019-04-07T13:42:07.818Z,2.50
2019-04-07T13:44:39.612Z,2.27
2019-04-07T13:47:22.099Z,2.62
2019-04-07T13:49:52.242Z,2.80
2019-04-07T13:52:23.102Z,2.77
2019-04-07T13:55:02.184Z,2.47
2019-04-07T13:57:34.943Z,2.65
2019-04-07T14:00:12.866Z,2.90
2019-04-07T14:02:42.147Z,2.50
2019-04-07T14:05:29.580Z,2.60
2019-04-07T14:08:00.106Z,2.98
2019-04-07T14:10:35.606Z,3.30
2019-04-07T14:13:17.149Z,3.00
2019-04-07T14:16:04.018Z,2.80
2019-04-07T14:18:37.165Z,3.02
2019-04-07T14:21:24.144Z,2.87
2019-04-07T14:23:57.246Z,3.30
2019-04-07T14:26:31.214Z,2.90
2019-04-07T14:29:18.499Z,3.22
2019-04-07T14:31:55.522Z,2.98
2019-04-07T14:34:26.126Z,3.20
2019-04-07T14:36:56.358Z,3.02
2019-04-07T14:39:27.137Z,2.70
2019-04-07T14:42:04.586Z,3.22
2019-04-07T14:44:29.317Z,2.92
2019-04-07T14:47:18.663Z,2.90
2019-04-07T14:50:06.926Z,3.12
2019-04-07T14:52:45.887Z,2.83
2019-04-07T14:55:16.339Z,2.85
2019-04-07T14:57:47.251Z,3.30
2019-04-07T15:00:33.552Z,3.27
2019-04-07T15:03:02.151Z,3.35
2019-04-07T15:05:32.809Z,3.35
2019-04-07T15:08:12.557Z,3.60
2019-04-07T15:10:42.941Z,3.17
2019-04-07T15:13:17.106Z,3.13
2019-04-07T15:15:45.754Z,3.52
2019-04-07T15:18:14.267Z,4.05
2019-04-07T15:20:43.188Z,2.93
2019-04-07T15:23:12.224Z,3.22
2019-04-07T15:25:43.979Z,3.40
2019-04-07T15:28:12.058Z,3.50
2019-04-07T15:30:40.657Z,3.10
2019-04-07T15:33:11.779Z,3.30
2019-04-07T15:35:39.639Z,3.50
2019-04-07T15:38:09.674Z,3.27
2019-04-07T15:40:38.510Z,3.70
2019-04-07T15:43:09.996Z,3.12
2019-04-07T15:45:39.477Z,3.30
2019-04-07T15:48:14.779Z,3.08
2019-04-07T15:50:43.250Z,3.10
2019-04-07T15:53:14.960Z,2.77
2019-04-07T15:55:47.860Z,2.30
2019-04-07T15:58:13.352Z,2.45
2019-04-07T16:00:42.858Z,2.55
2019-04-07T16:03:15.083Z,2.20
2019-04-07T16:05:43.976Z,2.30
2019-04-07T16:08:13.573Z,2.12
2019-04-07T16:10:42.488Z,2.15
2019-04-07T16:13:11.283Z,2.20
2019-04-07T16:15:42.633Z,2.12
2019-04-07T16:18:10.623Z,2.33
2019-04-07T16:20:40.366Z,2.00
2019-04-07T16:23:10.280Z,2.27
2019-04-07T16:25:40.586Z,2.02
2019-04-07T16:28:13.141Z,2.25
2019-04-07T16:30:40.677Z,2.40
2019-04-07T16:33:10.018Z,2.45
2019-04-07T16:35:38.613Z,2.10
2019-04-07T16:38:07.308Z,2.40
2019-04-07T16:40:35.986Z,1.90
2019-04-07T16:43:13.282Z,2.10
2019-04-07T16:45:34.742Z,1.83
2019-04-07T16:48:04.979Z,2.63
2019-04-07T16:50:35.049Z,2.90
2019-04-07T16:53:06.520Z,3.70
2019-04-07T16:55:37.292Z,2.90
2019-04-07T16:58:06.764Z,2.47
2019-04-07T17:00:35.610Z,2.27
2019-04-07T17:03:05.578Z,3.10
2019-04-07T17:05:34.146Z,2.33
2019-04-07T17:08:02.837Z,2.37
2019-04-07T17:10:34.081Z,2.70
2019-04-07T17:13:13.579Z,2.50
2019-04-07T17:15:34.779Z,2.60
2019-04-07T17:18:02.872Z,2.80
2019-04-07T17:20:34.992Z,2.70
2019-04-07T17:23:01.555Z,2.90
2019-04-07T17:25:32.801Z,4.17
2019-04-07T17:28:03.623Z,4.57
2019-04-07T17:30:30.434Z,5.83
2019-04-07T17:32:59.672Z,6.67
2019-04-07T17:35:28.497Z,6.90
2019-04-07T17:38:02.680Z,7.57
2019-04-07T17:40:31.938Z,7.97
2019-04-07T17:43:02.923Z,7.47
2019-04-07T17:45:33.335Z,7.20
2019-04-07T17:48:12.890Z,8.00
2019-04-07T17:50:43.020Z,8.30
2019-04-07T17:53:16.527Z,7.93
2019-04-07T17:55:48.014Z,8.00
2019-04-07T17:58:36.747Z,7.53
2019-04-07T18:01:13.819Z,8.43
2019-04-07T18:03:47.391Z,8.40
2019-04-07T18:06:18.127Z,8.70
2019-04-07T18:09:09.078Z,8.93
2019-04-07T18:11:35.540Z,9.77
2019-04-07T18:14:09.348Z,9.93
2019-04-07T18:16:46.181Z,9.30
2019-04-07T18:19:31.246Z,10.00
2019-04-07T18:22:09.299Z,9.43
2019-04-07T18:24:46.076Z,10.10
2019-04-07T18:27:22.097Z,13.30
2019-04-07T18:29:55.077Z,10.00
2019-04-07T18:32:25.335Z,10.63
2019-04-07T18:34:58.419Z,10.07
2019-04-07T18:37:40.039Z,10.40
2019-04-07T18:40:13.144Z,10.50
2019-04-07T18:42:49.242Z,10.20
2019-04-07T18:45:23.083Z,10.33
2019-04-07T18:47:55.854Z,10.37
2019-04-07T18:50:28.723Z,11.73
2019-04-07T18:53:05.072Z,11.00
2019-04-07T18:55:41.869Z,11.30
2019-04-07T18:58:28.701Z,10.77
2019-04-07T19:01:15.324Z,10.70
2019-04-07T19:03:53.295Z,11.77
2019-04-07T19:06:23.687Z,11.97
2019-04-07T19:09:01.427Z,11.17
2019-04-07T19:11:46.366Z,12.57
2019-04-07T19:14:43.189Z,11.77
2019-04-07T19:17:12.852Z,12.37
2019-04-07T19:19:44.071Z,11.27
2019-04-07T19:22:19.683Z,11.87
2019-04-07T19:25:11.309Z,12.17
2019-04-07T19:27:55.358Z,11.77
2019-04-07T19:30:29.377Z,11.17
2019-04-07T19:33:09.026Z,11.43
2019-04-07T19:35:57.520Z,10.80
2019-04-07T19:38:35.375Z,9.30
2019-04-07T19:41:20.337Z,9.83
2019-04-07T19:43:56.545Z,8.93
2019-04-07T19:46:29.183Z,8.43
2019-04-07T19:49:04.699Z,8.40
2019-04-07T19:51:41.564Z,7.93
2019-04-07T19:54:29.176Z,7.23
2019-04-07T19:57:11.494Z,7.30
2019-04-07T19:59:57.675Z,7.10
2019-04-07T20:02:44.672Z,7.33
2019-04-07T20:05:32.162Z,6.97
2019-04-07T20:08:11.942Z,6.27
2019-04-07T20:10:44.984Z,5.97
2019-04-07T20:13:26.870Z,6.10
2019-04-07T20:16:00.458Z,6.30
2019-04-07T20:18:39.869Z,5.93
2019-04-07T20:21:13.197Z,5.67
2019-04-07T20:23:47.926Z,5.73
2019-04-07T20:26:20.752Z,5.53
2019-04-07T20:29:02.197Z,6.00
2019-04-07T20:31:54.890Z,5.90
2019-04-07T20:34:25.314Z,6.13
2019-04-07T20:37:01.825Z,6.13
2019-04-07T20:39:37.953Z,5.50
2019-04-07T20:42:17.525Z,6.33
2019-04-07T20:45:01.832Z,6.43
2019-04-07T20:47:22.975Z,6.03
2019-04-07T20:50:02.352Z,5.53
2019-04-07T20:52:41.462Z,6.50
2019-04-07T20:55:28.735Z,6.50
2019-04-07T20:58:17.212Z,5.70
2019-04-07T21:00:59.447Z,4.77
2019-04-07T21:03:32.423Z,5.33
2019-04-07T21:06:08.800Z,5.60
2019-04-07T21:08:42.018Z,5.33
2019-04-07T21:11:15.240Z,5.30
2019-04-07T21:13:57.651Z,5.93
2019-04-07T21:16:29.923Z,4.80
2019-04-07T21:19:16.834Z,4.80
2019-04-07T21:21:47.836Z,5.00
2019-04-07T21:24:19.859Z,5.10
2019-04-07T21:27:00.937Z,5.37
2019-04-07T21:29:30.795Z,5.00
2019-04-07T21:32:09.817Z,5.07
2019-04-07T21:34:56.202Z,5.20
2019-04-07T21:37:33.838Z,4.87
2019-04-07T21:40:20.963Z,5.20
2019-04-07T21:42:54.577Z,4.90
2019-04-07T21:45:41.377Z,4.93
2019-04-07T21:48:28.587Z,5.27
2019-04-07T21:50:58.650Z,5.23
2019-04-07T21:53:44.296Z,4.47
2019-04-07T21:56:15.606Z,4.87
2019-04-07T21:58:56.831Z,4.70
2019-04-07T22:01:39.846Z,4.93
2019-04-07T22:04:10.441Z,4.40
2019-04-07T22:06:40.841Z,5.07
2019-04-07T22:09:15.926Z,5.20
2019-04-07T22:11:44.959Z,4.87
2019-04-07T22:14:14.688Z,4.90
2019-04-07T22:16:43.423Z,4.73
2019-04-07T22:19:13.979Z,5.10
2019-04-07T22:21:42.524Z,4.80
2019-04-07T22:24:11.194Z,5.03
2019-04-07T22:26:40.599Z,5.10
2019-04-07T22:29:09.776Z,4.73
2019-04-07T22:31:51.873Z,4.80
2019-04-07T22:34:20.762Z,5.00
2019-04-07T22:36:49.702Z,4.93
2019-04-07T22:39:18.539Z,4.60
2019-04-07T22:41:48.293Z,5.00
2019-04-07T22:44:19.903Z,4.87
2019-04-07T22:46:49.530Z,4.60
2019-04-07T22:49:17.834Z,4.87
2019-04-07T22:51:49.056Z,4.60
2019-04-07T22:54:16.856Z,4.60
2019-04-07T22:59:41.830Z,4.93
2019-04-07T23:02:10.583Z,5.17
2019-04-07T23:04:39.170Z,4.70
2019-04-07T23:07:08.234Z,5.20
2019-04-07T23:09:37.032Z,4.93
2019-04-07T23:12:05.881Z,5.17
2019-04-07T23:14:34.576Z,4.50
2019-04-07T23:17:03.674Z,4.90
2019-04-07T23:19:32.309Z,5.00
2019-04-07T23:22:01.161Z,5.00
2019-04-07T23:24:49.245Z,5.33
2019-04-07T23:27:18.123Z,5.20
2019-04-07T23:29:46.815Z,4.60
2019-04-07T23:32:15.850Z,4.97
2019-04-07T23:34:44.560Z,4.90
2019-04-07T23:37:14.315Z,5.60
2019-04-07T23:39:43.959Z,4.57
2019-04-07T23:42:12.784Z,5.43
2019-04-07T23:44:41.456Z,5.13
2019-04-07T23:47:11.080Z,5.47
2019-04-07T23:49:40.525Z,5.10
2019-04-07T23:52:09.332Z,5.30
2019-04-07T23:54:38.586Z,6.17
2019-04-07T23:57:07.480Z,5.30
2019-04-07T23:59:36.203Z,5.47
